sensor_id;sensor_type;location;lat;lon;timestamp;pressure;altitude;pressure_sealevel;temperature
79089;BMP280;68489;50.286;9.452;2023-08-31T00:01:35;96691.47;;;12.27
79089;BMP280;68489;50.286;9.452;2023-08-31T00:04:00;96691.75;;;12.29
79089;BMP280;68489;50.286;9.452;2023-08-31T00:06:26;96699.91;;;12.26
79089;BMP280;68489;50.286;9.452;2023-08-31T00:08:51;96700.19;;;12.28
79089;BMP280;68489;50.286;9.452;2023-08-31T00:11:16;96696.81;;;12.27
79089;BMP280;68489;50.286;9.452;2023-08-31T00:13:42;96697.06;;;12.29
79089;BMP280;68489;50.286;9.452;2023-08-31T00:16:07;96700.28;;;12.33
79089;BMP280;68489;50.286;9.452;2023-08-31T00:18:35;96702.59;;;12.41
79089;BMP280;68489;50.286;9.452;2023-08-31T00:21:01;96703.84;;;12.45
79089;BMP280;68489;50.286;9.452;2023-08-31T00:23:27;96707.34;;;12.51
79089;BMP280;68489;50.286;9.452;2023-08-31T00:25:52;96708.59;;;12.56
79089;BMP280;68489;50.286;9.452;2023-08-31T00:28:19;96702.63;;;12.61
79089;BMP280;68489;50.286;9.452;2023-08-31T00:30:44;96714.13;;;12.67
79089;BMP280;68489;50.286;9.452;2023-08-31T00:33:11;96712.72;;;12.72
79089;BMP280;68489;50.286;9.452;2023-08-31T00:35:36;96713.53;;;12.78
79089;BMP280;68489;50.286;9.452;2023-08-31T00:38:02;96716.25;;;12.83
79089;BMP280;68489;50.286;9.452;2023-08-31T00:40:30;96712.41;;;12.84
79089;BMP280;68489;50.286;9.452;2023-08-31T00:42:57;96709.56;;;12.88
79089;BMP280;68489;50.286;9.452;2023-08-31T00:45:22;96715.34;;;12.86
79089;BMP280;68489;50.286;9.452;2023-08-31T00:47:48;96707.56;;;12.83
79089;BMP280;68489;50.286;9.452;2023-08-31T00:50:14;96706.09;;;12.82
79089;BMP280;68489;50.286;9.452;2023-08-31T00:52:41;96721.16;;;12.85
79089;BMP280;68489;50.286;9.452;2023-08-31T00:55:09;96713.16;;;12.85
79089;BMP280;68489;50.286;9.452;2023-08-31T00:57:35;96710.31;;;12.88
79089;BMP280;68489;50.286;9.452;2023-08-31T01:00:00;96713.69;;;12.89
79089;BMP280;68489;50.286;9.452;2023-08-31T01:03:06;96711.50;;;12.87
79089;BMP280;68489;50.286;9.452;2023-08-31T01:05:40;96715.16;;;12.90
79089;BMP280;68489;50.286;9.452;2023-08-31T01:08:22;96718.38;;;12.94
79089;BMP280;68489;50.286;9.452;2023-08-31T01:11:05;96724.06;;;13.02
79089;BMP280;68489;50.286;9.452;2023-08-31T01:13:34;96728.66;;;13.01
79089;BMP280;68489;50.286;9.452;2023-08-31T01:16:00;96721.66;;;13.04
79089;BMP280;68489;50.286;9.452;2023-08-31T01:18:28;96721.66;;;13.04
79089;BMP280;68489;50.286;9.452;2023-08-31T01:21:11;96723.84;;;13.05
79089;BMP280;68489;50.286;9.452;2023-08-31T01:26:13;96723.91;;;13.11
79089;BMP280;68489;50.286;9.452;2023-08-31T01:28:39;96730.94;;;13.08
79089;BMP280;68489;50.286;9.452;2023-08-31T01:31:04;96733.84;;;13.10
79089;BMP280;68489;50.286;9.452;2023-08-31T01:33:30;96730.19;;;13.08
79089;BMP280;68489;50.286;9.452;2023-08-31T01:35:57;96733.84;;;13.10
79089;BMP280;68489;50.286;9.452;2023-08-31T01:38:27;96735.09;;;13.09
79089;BMP280;68489;50.286;9.452;2023-08-31T01:43:22;96740.66;;;13.11
79089;BMP280;68489;50.286;9.452;2023-08-31T01:45:48;96740.50;;;13.15
79089;BMP280;68489;50.286;9.452;2023-08-31T01:48:14;96747.28;;;13.16
79089;BMP280;68489;50.286;9.452;2023-08-31T01:50:39;96741.22;;;13.15
79089;BMP280;68489;50.286;9.452;2023-08-31T01:53:05;96743.41;;;13.17
79089;BMP280;68489;50.286;9.452;2023-08-31T01:55:32;96753.19;;;13.20
79089;BMP280;68489;50.286;9.452;2023-08-31T01:57:57;96753.91;;;13.21
79089;BMP280;68489;50.286;9.452;2023-08-31T02:00:22;96752.41;;;13.20
79089;BMP280;68489;50.286;9.452;2023-08-31T02:02:48;96752.75;;;13.27
79089;BMP280;68489;50.286;9.452;2023-08-31T02:05:13;96759.53;;;13.23
79089;BMP280;68489;50.286;9.452;2023-08-31T02:07:39;96757.09;;;13.25
79089;BMP280;68489;50.286;9.452;2023-08-31T02:10:05;96754.69;;;13.27
79089;BMP280;68489;50.286;9.452;2023-08-31T02:12:32;96754.41;;;13.25
79089;BMP280;68489;50.286;9.452;2023-08-31T02:14:57;96756.16;;;13.28
79089;BMP280;68489;50.286;9.452;2023-08-31T02:17:22;96755.44;;;13.27
79089;BMP280;68489;50.286;9.452;2023-08-31T02:19:48;96756.16;;;13.28
79089;BMP280;68489;50.286;9.452;2023-08-31T02:22:13;96757.09;;;13.25
79089;BMP280;68489;50.286;9.452;2023-08-31T02:24:38;96754.97;;;13.29
79089;BMP280;68489;50.286;9.452;2023-08-31T02:27:03;96750.81;;;13.28
79089;BMP280;68489;50.286;9.452;2023-08-31T02:29:29;96753.50;;;13.28
79089;BMP280;68489;50.286;9.452;2023-08-31T02:31:54;96758.97;;;13.19
79089;BMP280;68489;50.286;9.452;2023-08-31T02:34:19;96760.72;;;13.22
79089;BMP280;68489;50.286;9.452;2023-08-31T02:36:45;96759.97;;;13.21
79089;BMP280;68489;50.286;9.452;2023-08-31T02:39:11;96753.38;;;13.16
79089;BMP280;68489;50.286;9.452;2023-08-31T02:41:36;96748.03;;;13.16
79089;BMP280;68489;50.286;9.452;2023-08-31T02:44:02;96748.34;;;13.04
79089;BMP280;68489;50.286;9.452;2023-08-31T02:46:27;96754.41;;;13.04
79089;BMP280;68489;50.286;9.452;2023-08-31T02:48:53;96749.06;;;13.04
79089;BMP280;68489;50.286;9.452;2023-08-31T02:51:18;96758.53;;;13.05
79089;BMP280;68489;50.286;9.452;2023-08-31T02:53:43;96752.47;;;13.05
79089;BMP280;68489;50.286;9.452;2023-08-31T02:56:09;96754.69;;;13.06
79089;BMP280;68489;50.286;9.452;2023-08-31T02:58:34;96754.63;;;13.01
79089;BMP280;68489;50.286;9.452;2023-08-31T03:01:10;96759.66;;;12.99
79089;BMP280;68489;50.286;9.452;2023-08-31T03:03:38;96757.94;;;12.96
79089;BMP280;68489;50.286;9.452;2023-08-31T03:06:06;96751.31;;;12.91
79089;BMP280;68489;50.286;9.452;2023-08-31T03:08:31;96751.31;;;12.91
79089;BMP280;68489;50.286;9.452;2023-08-31T03:10:56;96749.66;;;12.94
79089;BMP280;68489;50.286;9.452;2023-08-31T03:13:22;96747.19;;;12.90
79089;BMP280;68489;50.286;9.452;2023-08-31T03:15:47;96748.63;;;12.91
79089;BMP280;68489;50.286;9.452;2023-08-31T03:18:12;96749.84;;;12.90
79089;BMP280;68489;50.286;9.452;2023-08-31T03:20:38;96744.50;;;12.90
79089;BMP280;68489;50.286;9.452;2023-08-31T03:23:03;96748.38;;;12.89
79089;BMP280;68489;50.286;9.452;2023-08-31T03:25:29;96755.19;;;12.90
79089;BMP280;68489;50.286;9.452;2023-08-31T03:27:54;96750.31;;;12.88
79089;BMP280;68489;50.286;9.452;2023-08-31T03:30:20;96746.91;;;12.88
79089;BMP280;68489;50.286;9.452;2023-08-31T03:32:45;96754.19;;;12.87
79089;BMP280;68489;50.286;9.452;2023-08-31T03:35:10;96757.59;;;12.88
79089;BMP280;68489;50.286;9.452;2023-08-31T03:37:36;96756.84;;;12.87
79089;BMP280;68489;50.286;9.452;2023-08-31T03:40:02;96757.78;;;12.84
79089;BMP280;68489;50.286;9.452;2023-08-31T03:42:29;96752.91;;;12.83
79089;BMP280;68489;50.286;9.452;2023-08-31T03:44:54;96755.28;;;12.81
79089;BMP280;68489;50.286;9.452;2023-08-31T03:47:20;96751.16;;;12.80
79089;BMP280;68489;50.286;9.452;2023-08-31T03:49:45;96753.81;;;12.80
79089;BMP280;68489;50.286;9.452;2023-08-31T03:52:10;96754.56;;;12.80
79089;BMP280;68489;50.286;9.452;2023-08-31T03:54:35;96758.66;;;12.76
79089;BMP280;68489;50.286;9.452;2023-08-31T03:57:01;96758.66;;;12.76
79089;BMP280;68489;50.286;9.452;2023-08-31T03:59:26;96767.53;;;12.73
79089;BMP280;68489;50.286;9.452;2023-08-31T04:01:51;96766.34;;;12.74
79089;BMP280;68489;50.286;9.452;2023-08-31T04:04:17;96762.19;;;12.73
79089;BMP280;68489;50.286;9.452;2023-08-31T04:06:42;96770.50;;;12.75
79089;BMP280;68489;50.286;9.452;2023-08-31T04:09:07;96763.69;;;12.74
79089;BMP280;68489;50.286;9.452;2023-08-31T04:11:33;96766.81;;;12.72
79089;BMP280;68489;50.286;9.452;2023-08-31T04:13:58;96769.03;;;12.74
79089;BMP280;68489;50.286;9.452;2023-08-31T04:16:23;96784.63;;;12.81
79089;BMP280;68489;50.286;9.452;2023-08-31T04:18:49;96784.63;;;12.81
79089;BMP280;68489;50.286;9.452;2023-08-31T04:21:17;96781.97;;;12.81
79089;BMP280;68489;50.286;9.452;2023-08-31T04:23:43;96784.19;;;12.82
79089;BMP280;68489;50.286;9.452;2023-08-31T04:26:15;96788.28;;;12.83
79089;BMP280;68489;50.286;9.452;2023-08-31T04:28:42;96790.81;;;12.87
79089;BMP280;68489;50.286;9.452;2023-08-31T04:31:08;96788.94;;;12.93
79089;BMP280;68489;50.286;9.452;2023-08-31T04:33:34;96794.81;;;12.97
79089;BMP280;68489;50.286;9.452;2023-08-31T04:35:59;96802.28;;;12.93
79089;BMP280;68489;50.286;9.452;2023-08-31T04:38:25;96800.34;;;12.94
79089;BMP280;68489;50.286;9.452;2023-08-31T04:40:50;96798.88;;;12.93
79089;BMP280;68489;50.286;9.452;2023-08-31T04:43:18;96802.28;;;12.93
79089;BMP280;68489;50.286;9.452;2023-08-31T04:45:43;96804.22;;;12.93
79089;BMP280;68489;50.286;9.452;2023-08-31T04:48:08;96804.88;;;12.87
79089;BMP280;68489;50.286;9.452;2023-08-31T04:50:34;96817.75;;;12.89
79089;BMP280;68489;50.286;9.452;2023-08-31T04:52:59;96817.56;;;12.93
79089;BMP280;68489;50.286;9.452;2023-08-31T04:55:24;96823.34;;;12.91
79089;BMP280;68489;50.286;9.452;2023-08-31T04:57:50;96818.66;;;12.86
79089;BMP280;68489;50.286;9.452;2023-08-31T05:00:16;96826.50;;;12.89
79089;BMP280;68489;50.286;9.452;2023-08-31T05:02:41;96817.94;;;12.85
79089;BMP280;68489;50.286;9.452;2023-08-31T05:05:08;96827.88;;;12.85
79089;BMP280;68489;50.286;9.452;2023-08-31T05:07:34;96829.19;;;12.89
79089;BMP280;68489;50.286;9.452;2023-08-31T05:09:59;96818.66;;;12.86
79089;BMP280;68489;50.286;9.452;2023-08-31T05:12:24;96827.13;;;12.84
79089;BMP280;68489;50.286;9.452;2023-08-31T05:14:50;96836.16;;;12.87
79089;BMP280;68489;50.286;9.452;2023-08-31T05:17:15;96836.44;;;12.89
79089;BMP280;68489;50.286;9.452;2023-08-31T05:19:40;96841.03;;;12.88
79089;BMP280;68489;50.286;9.452;2023-08-31T05:22:05;96838.91;;;12.93
79089;BMP280;68489;50.286;9.452;2023-08-31T05:24:31;96835.03;;;12.94
79089;BMP280;68489;50.286;9.452;2023-08-31T05:26:56;96839.00;;;12.98
79089;BMP280;68489;50.286;9.452;2023-08-31T05:29:21;96841.84;;;12.95
79089;BMP280;68489;50.286;9.452;2023-08-31T05:31:47;96845.78;;;12.99
79089;BMP280;68489;50.286;9.452;2023-08-31T05:34:16;96849.50;;;13.02
79089;BMP280;68489;50.286;9.452;2023-08-31T05:36:41;96848.53;;;13.05
79089;BMP280;68489;50.286;9.452;2023-08-31T05:39:06;96859.22;;;13.05
79089;BMP280;68489;50.286;9.452;2023-08-31T05:41:33;96850.47;;;13.04
79089;BMP280;68489;50.286;9.452;2023-08-31T05:43:59;96858.78;;;13.06
79089;BMP280;68489;50.286;9.452;2023-08-31T05:46:24;96857.84;;;13.09
79089;BMP280;68489;50.286;9.452;2023-08-31T05:48:50;96863.19;;;13.09
79089;BMP280;68489;50.286;9.452;2023-08-31T05:51:15;96873.94;;;13.15
79089;BMP280;68489;50.286;9.452;2023-08-31T05:53:40;96859.88;;;13.14
79089;BMP280;68489;50.286;9.452;2023-08-31T05:56:06;96868.31;;;13.13
79089;BMP280;68489;50.286;9.452;2023-08-31T05:58:36;96875.88;;;13.14
79089;BMP280;68489;50.286;9.452;2023-08-31T06:01:04;96870.84;;;13.02
79089;BMP280;68489;50.286;9.452;2023-08-31T06:03:30;96869.44;;;13.06
79089;BMP280;68489;50.286;9.452;2023-08-31T06:05:57;96876.03;;;13.11
79089;BMP280;68489;50.286;9.452;2023-08-31T06:08:23;96877.16;;;13.04
79089;BMP280;68489;50.286;9.452;2023-08-31T06:10:48;96878.56;;;13.14
79089;BMP280;68489;50.286;9.452;2023-08-31T06:13:14;96884.88;;;13.17
79089;BMP280;68489;50.286;9.452;2023-08-31T06:15:39;96885.88;;;13.20
79089;BMP280;68489;50.286;9.452;2023-08-31T06:18:05;96878.34;;;13.18
79089;BMP280;68489;50.286;9.452;2023-08-31T06:20:31;96892.78;;;13.26
79089;BMP280;68489;50.286;9.452;2023-08-31T06:22:56;96887.91;;;13.25
79089;BMP280;68489;50.286;9.452;2023-08-31T06:25:22;96899.38;;;13.31
79089;BMP280;68489;50.286;9.452;2023-08-31T06:27:48;96905.50;;;13.31
79089;BMP280;68489;50.286;9.452;2023-08-31T06:30:13;96904.09;;;13.36
79089;BMP280;68489;50.286;9.452;2023-08-31T06:32:45;96896.66;;;13.25
79089;BMP280;68489;50.286;9.452;2023-08-31T06:35:11;96908.00;;;13.20
79089;BMP280;68489;50.286;9.452;2023-08-31T06:37:38;96912.44;;;13.23
79089;BMP280;68489;50.286;9.452;2023-08-31T06:40:05;96913.13;;;13.24
79089;BMP280;68489;50.286;9.452;2023-08-31T06:42:30;96913.13;;;13.24
79089;BMP280;68489;50.286;9.452;2023-08-31T06:44:56;96917.63;;;13.32
79089;BMP280;68489;50.286;9.452;2023-08-31T06:47:22;96911.09;;;13.33
79089;BMP280;68489;50.286;9.452;2023-08-31T06:49:47;96919.66;;;13.37
79089;BMP280;68489;50.286;9.452;2023-08-31T06:52:12;96923.06;;;13.38
79089;BMP280;68489;50.286;9.452;2023-08-31T06:54:39;96923.63;;;13.42
79089;BMP280;68489;50.286;9.452;2023-08-31T06:57:04;96927.94;;;13.39
79089;BMP280;68489;50.286;9.452;2023-08-31T06:59:30;96928.22;;;13.41
79089;BMP280;68489;50.286;9.452;2023-08-31T07:01:55;96933.22;;;13.34
79089;BMP280;68489;50.286;9.452;2023-08-31T07:04:21;96929.72;;;13.43
79089;BMP280;68489;50.286;9.452;2023-08-31T07:06:46;96933.63;;;13.47
79089;BMP280;68489;50.286;9.452;2023-08-31T07:09:11;96936.03;;;13.45
79089;BMP280;68489;50.286;9.452;2023-08-31T07:11:37;96929.78;;;13.48
79089;BMP280;68489;50.286;9.452;2023-08-31T07:14:02;96936.13;;;13.51
79089;BMP280;68489;50.286;9.452;2023-08-31T07:16:28;96936.00;;;13.60
79089;BMP280;68489;50.286;9.452;2023-08-31T07:18:53;96936.06;;;13.65
79089;BMP280;68489;50.286;9.452;2023-08-31T07:21:19;96924.63;;;13.80
79089;BMP280;68489;50.286;9.452;2023-08-31T07:23:44;96945.44;;;13.76
79089;BMP280;68489;50.286;9.452;2023-08-31T07:26:10;96945.31;;;13.85
79089;BMP280;68489;50.286;9.452;2023-08-31T07:28:35;96954.56;;;14.04
79089;BMP280;68489;50.286;9.452;2023-08-31T07:31:04;96947.75;;;14.24
79089;BMP280;68489;50.286;9.452;2023-08-31T07:33:34;96956.75;;;14.26
79089;BMP280;68489;50.286;9.452;2023-08-31T07:36:02;96962.84;;;14.47
79089;BMP280;68489;50.286;9.452;2023-08-31T07:38:30;96969.38;;;14.46
79089;BMP280;68489;50.286;9.452;2023-08-31T07:40:55;96970.59;;;14.45
79089;BMP280;68489;50.286;9.452;2023-08-31T07:43:21;96971.78;;;14.44
79089;BMP280;68489;50.286;9.452;2023-08-31T07:45:46;96971.38;;;14.51
79089;BMP280;68489;50.286;9.452;2023-08-31T07:48:12;96982.53;;;14.50
79089;BMP280;68489;50.286;9.452;2023-08-31T07:50:39;96994.13;;;14.61
79089;BMP280;68489;50.286;9.452;2023-08-31T07:53:05;96987.88;;;14.70
79089;BMP280;68489;50.286;9.452;2023-08-31T07:55:30;96993.28;;;14.76
79089;BMP280;68489;50.286;9.452;2023-08-31T07:57:56;96990.25;;;14.88
79089;BMP280;68489;50.286;9.452;2023-08-31T08:00:21;97003.84;;;14.85
79089;BMP280;68489;50.286;9.452;2023-08-31T08:02:46;97005.66;;;14.99
79089;BMP280;68489;50.286;9.452;2023-08-31T08:05:12;97005.38;;;14.91
79089;BMP280;68489;50.286;9.452;2023-08-31T08:07:37;97011.34;;;14.81
79089;BMP280;68489;50.286;9.452;2023-08-31T08:10:03;97010.09;;;14.56
79089;BMP280;68489;50.286;9.452;2023-08-31T08:12:36;97000.72;;;14.66
79089;BMP280;68489;50.286;9.452;2023-08-31T08:15:02;96996.25;;;14.78
79089;BMP280;68489;50.286;9.452;2023-08-31T08:17:27;97002.84;;;14.82
79089;BMP280;68489;50.286;9.452;2023-08-31T08:19:52;97006.56;;;14.90
79089;BMP280;68489;50.286;9.452;2023-08-31T08:22:18;96999.91;;;15.06
79089;BMP280;68489;50.286;9.452;2023-08-31T08:24:43;97001.22;;;15.16
79089;BMP280;68489;50.286;9.452;2023-08-31T08:27:08;97006.28;;;15.14
79089;BMP280;68489;50.286;9.452;2023-08-31T08:29:34;97008.09;;;15.23
79089;BMP280;68489;50.286;9.452;2023-08-31T08:31:59;97002.78;;;15.29
79089;BMP280;68489;50.286;9.452;2023-08-31T08:34:25;97000.84;;;15.35
79089;BMP280;68489;50.286;9.452;2023-08-31T08:36:52;97012.19;;;15.50
79089;BMP280;68489;50.286;9.452;2023-08-31T08:39:17;97004.75;;;15.71
79089;BMP280;68489;50.286;9.452;2023-08-31T08:41:44;97014.78;;;15.76
79089;BMP280;68489;50.286;9.452;2023-08-31T08:44:09;97013.63;;;15.88
79089;BMP280;68489;50.286;9.452;2023-08-31T08:46:36;97020.13;;;16.13
79089;BMP280;68489;50.286;9.452;2023-08-31T08:49:02;97016.78;;;16.35
79089;BMP280;68489;50.286;9.452;2023-08-31T08:51:29;97022.56;;;16.22
79089;BMP280;68489;50.286;9.452;2023-08-31T08:53:56;97030.34;;;16.20
79089;BMP280;68489;50.286;9.452;2023-08-31T08:56:24;97020.59;;;16.17
79089;BMP280;68489;50.286;9.452;2023-08-31T08:58:49;97028.91;;;16.14
79089;BMP280;68489;50.286;9.452;2023-08-31T09:01:14;97029.66;;;16.20
79089;BMP280;68489;50.286;9.452;2023-08-31T09:03:42;97026.00;;;16.28
79089;BMP280;68489;50.286;9.452;2023-08-31T09:06:07;97036.00;;;16.22
79089;BMP280;68489;50.286;9.452;2023-08-31T09:08:33;97029.91;;;16.22
79089;BMP280;68489;50.286;9.452;2023-08-31T09:10:58;97034.88;;;16.46
79089;BMP280;68489;50.286;9.452;2023-08-31T09:13:29;97043.50;;;16.72
79089;BMP280;68489;50.286;9.452;2023-08-31T09:15:55;97044.69;;;16.66
79089;BMP280;68489;50.286;9.452;2023-08-31T09:18:29;97049.66;;;17.12
79089;BMP280;68489;50.286;9.452;2023-08-31T09:20:55;97048.44;;;17.30
79089;BMP280;68489;50.286;9.452;2023-08-31T09:23:22;97045.50;;;17.22
79089;BMP280;68489;50.286;9.452;2023-08-31T09:25:51;97039.91;;;17.26
79089;BMP280;68489;50.286;9.452;2023-08-31T09:28:20;97037.44;;;17.28
79089;BMP280;68489;50.286;9.452;2023-08-31T09:30:47;97045.00;;;17.41
79089;BMP280;68489;50.286;9.452;2023-08-31T09:33:15;97043.53;;;17.34
79089;BMP280;68489;50.286;9.452;2023-08-31T09:35:57;97045.72;;;17.52
79089;BMP280;68489;50.286;9.452;2023-08-31T09:38:23;97045.72;;;17.69
79089;BMP280;68489;50.286;9.452;2023-08-31T09:40:48;97045.28;;;17.43
79089;BMP280;68489;50.286;9.452;2023-08-31T09:43:23;97045.72;;;17.47
79089;BMP280;68489;50.286;9.452;2023-08-31T09:45:49;97048.16;;;17.61
79089;BMP280;68489;50.286;9.452;2023-08-31T09:48:15;97039.13;;;17.64
79089;BMP280;68489;50.286;9.452;2023-08-31T09:50:43;97038.59;;;17.77
79089;BMP280;68489;50.286;9.452;2023-08-31T09:53:10;97043.50;;;17.79
79089;BMP280;68489;50.286;9.452;2023-08-31T09:55:36;97041.09;;;17.53
79089;BMP280;68489;50.286;9.452;2023-08-31T09:58:06;97042.56;;;17.54
79089;BMP280;68489;50.286;9.452;2023-08-31T10:00:32;97037.69;;;17.35
79089;BMP280;68489;50.286;9.452;2023-08-31T10:03:01;97039.38;;;17.05
79089;BMP280;68489;50.286;9.452;2023-08-31T10:05:28;97044.00;;;16.99
79089;BMP280;68489;50.286;9.452;2023-08-31T10:07:54;97050.38;;;17.01
79089;BMP280;68489;50.286;9.452;2023-08-31T10:10:19;97042.81;;;17.28
79089;BMP280;68489;50.286;9.452;2023-08-31T10:12:48;97043.53;;;17.34
79089;BMP280;68489;50.286;9.452;2023-08-31T10:15:23;97036.94;;;17.52
79089;BMP280;68489;50.286;9.452;2023-08-31T10:17:51;97040.34;;;17.63
79089;BMP280;68489;50.286;9.452;2023-08-31T10:20:17;97036.19;;;17.74
79089;BMP280;68489;50.286;9.452;2023-08-31T10:22:43;97044.19;;;17.90
79089;BMP280;68489;50.286;9.452;2023-08-31T10:25:09;97047.81;;;18.10
79089;BMP280;68489;50.286;9.452;2023-08-31T10:27:39;97030.00;;;17.90
79089;BMP280;68489;50.286;9.452;2023-08-31T10:30:33;97042.41;;;18.15
79089;BMP280;68489;50.286;9.452;2023-08-31T10:33:19;97044.38;;;18.62
79089;BMP280;68489;50.286;9.452;2023-08-31T10:35:48;97056.38;;;18.61
79089;BMP280;68489;50.286;9.452;2023-08-31T10:38:15;97049.31;;;18.52
79089;BMP280;68489;50.286;9.452;2023-08-31T10:40:41;97049.53;;;18.60
79089;BMP280;68489;50.286;9.452;2023-08-31T10:43:15;97045.53;;;18.36
79089;BMP280;68489;50.286;9.452;2023-08-31T10:45:45;97054.31;;;18.37
79089;BMP280;68489;50.286;9.452;2023-08-31T10:48:11;97038.13;;;18.42
79089;BMP280;68489;50.286;9.452;2023-08-31T10:50:42;97048.38;;;18.44
79089;BMP280;68489;50.286;9.452;2023-08-31T10:53:09;97044.88;;;18.60
79089;BMP280;68489;50.286;9.452;2023-08-31T10:55:50;97052.50;;;18.56
79089;BMP280;68489;50.286;9.452;2023-08-31T10:58:16;97052.63;;;18.75
79089;BMP280;68489;50.286;9.452;2023-08-31T11:00:52;97060.19;;;18.82
79089;BMP280;68489;50.286;9.452;2023-08-31T11:03:18;97051.78;;;18.97
79089;BMP280;68489;50.286;9.452;2023-08-31T11:05:53;97066.38;;;18.66
79089;BMP280;68489;50.286;9.452;2023-08-31T11:08:22;97064.41;;;18.72
79089;BMP280;68489;50.286;9.452;2023-08-31T11:10:49;97067.53;;;18.82
79089;BMP280;68489;50.286;9.452;2023-08-31T11:13:19;97060.66;;;18.86
79089;BMP280;68489;50.286;9.452;2023-08-31T11:15:46;97061.38;;;18.87
79089;BMP280;68489;50.286;9.452;2023-08-31T11:18:14;97067.22;;;19.21
79089;BMP280;68489;50.286;9.452;2023-08-31T11:20:43;97068.72;;;19.22
79089;BMP280;68489;50.286;9.452;2023-08-31T11:23:09;97060.59;;;19.27
79089;BMP280;68489;50.286;9.452;2023-08-31T11:25:35;97061.22;;;19.09
79089;BMP280;68489;50.286;9.452;2023-08-31T11:28:02;97060.66;;;18.86
79089;BMP280;68489;50.286;9.452;2023-08-31T11:30:36;97058.03;;;18.75
79089;BMP280;68489;50.286;9.452;2023-08-31T11:33:08;97048.84;;;18.54
79089;BMP280;68489;50.286;9.452;2023-08-31T11:35:38;97045.94;;;18.46
79089;BMP280;68489;50.286;9.452;2023-08-31T11:38:11;97048.13;;;18.48
79089;BMP280;68489;50.286;9.452;2023-08-31T11:40:37;97046.34;;;18.61
79089;BMP280;68489;50.286;9.452;2023-08-31T11:43:07;97032.94;;;18.91
79089;BMP280;68489;50.286;9.452;2023-08-31T11:45:38;97035.31;;;19.00
79089;BMP280;68489;50.286;9.452;2023-08-31T11:48:04;97043.69;;;18.97
79089;BMP280;68489;50.286;9.452;2023-08-31T11:50:32;97056.81;;;18.70
79089;BMP280;68489;50.286;9.452;2023-08-31T11:52:58;97055.88;;;18.62
79089;BMP280;68489;50.286;9.452;2023-08-31T11:55:24;97049.91;;;18.34
79089;BMP280;68489;50.286;9.452;2023-08-31T11:57:54;97056.56;;;18.27
79089;BMP280;68489;50.286;9.452;2023-08-31T12:03:45;97056.78;;;18.29
79089;BMP280;68489;50.286;9.452;2023-08-31T12:06:10;97052.59;;;18.39
79089;BMP280;68489;50.286;9.452;2023-08-31T12:08:36;97062.34;;;18.42
79089;BMP280;68489;50.286;9.452;2023-08-31T12:11:02;97058.00;;;18.28
79089;BMP280;68489;50.286;9.452;2023-08-31T12:13:29;97048.78;;;18.12
79089;BMP280;68489;50.286;9.452;2023-08-31T12:15:57;97051.72;;;18.14
79089;BMP280;68489;50.286;9.452;2023-08-31T12:18:29;97056.81;;;18.24
79089;BMP280;68489;50.286;9.452;2023-08-31T12:20:55;97058.44;;;18.38
79089;BMP280;68489;50.286;9.452;2023-08-31T12:23:22;97060.03;;;18.11
79089;BMP280;68489;50.286;9.452;2023-08-31T12:25:51;97051.41;;;18.24
79089;BMP280;68489;50.286;9.452;2023-08-31T12:28:21;97048.72;;;18.24
79089;BMP280;68489;50.286;9.452;2023-08-31T12:30:49;97033.09;;;18.16
79089;BMP280;68489;50.286;9.452;2023-08-31T12:33:14;97045.81;;;18.22
79089;BMP280;68489;50.286;9.452;2023-08-31T12:35:41;97050.47;;;18.21
79089;BMP280;68489;50.286;9.452;2023-08-31T12:38:06;97049.06;;;18.03
79089;BMP280;68489;50.286;9.452;2023-08-31T12:40:32;97043.94;;;17.94
79089;BMP280;68489;50.286;9.452;2023-08-31T12:42:57;97051.59;;;17.73
79089;BMP280;68489;50.286;9.452;2023-08-31T12:45:22;97048.16;;;17.78
79089;BMP280;68489;50.286;9.452;2023-08-31T12:47:48;97047.16;;;17.81
79089;BMP280;68489;50.286;9.452;2023-08-31T12:50:13;97039.34;;;17.78
79089;BMP280;68489;50.286;9.452;2023-08-31T12:52:39;97030.47;;;17.94
79089;BMP280;68489;50.286;9.452;2023-08-31T12:55:18;97041.75;;;17.98
79089;BMP280;68489;50.286;9.452;2023-08-31T12:57:43;97030.25;;;17.98
79089;BMP280;68489;50.286;9.452;2023-08-31T13:00:10;97058.91;;;17.78
79089;BMP280;68489;50.286;9.452;2023-08-31T13:02:41;97060.44;;;17.29
79089;BMP280;68489;50.286;9.452;2023-08-31T13:05:10;97072.84;;;16.93
79089;BMP280;68489;50.286;9.452;2023-08-31T13:07:37;97067.16;;;16.68
79089;BMP280;68489;50.286;9.452;2023-08-31T13:10:03;97063.50;;;16.66
79089;BMP280;68489;50.286;9.452;2023-08-31T13:12:30;97076.06;;;16.43
79089;BMP280;68489;50.286;9.452;2023-08-31T13:15:04;97056.34;;;16.46
79089;BMP280;68489;50.286;9.452;2023-08-31T13:17:50;97081.22;;;16.41
79089;BMP280;68489;50.286;9.452;2023-08-31T13:20:19;97064.16;;;16.01
79089;BMP280;68489;50.286;9.452;2023-08-31T13:22:49;97067.44;;;15.79
79089;BMP280;68489;50.286;9.452;2023-08-31T13:25:35;97078.44;;;15.49
79089;BMP280;68489;50.286;9.452;2023-08-31T13:28:09;97065.69;;;15.39
79089;BMP280;68489;50.286;9.452;2023-08-31T13:30:37;97070.84;;;15.42
79089;BMP280;68489;50.286;9.452;2023-08-31T13:33:08;97059.38;;;15.42
79089;BMP280;68489;50.286;9.452;2023-08-31T13:36:08;97051.31;;;15.36
79089;BMP280;68489;50.286;9.452;2023-08-31T13:38:40;97046.84;;;15.59
79089;BMP280;68489;50.286;9.452;2023-08-31T13:41:10;97038.75;;;15.85
79089;BMP280;68489;50.286;9.452;2023-08-31T13:43:41;97056.75;;;16.27
79089;BMP280;68489;50.286;9.452;2023-08-31T13:46:18;97032.75;;;16.67
79089;BMP280;68489;50.286;9.452;2023-08-31T13:48:50;97034.00;;;17.16
79089;BMP280;68489;50.286;9.452;2023-08-31T13:51:52;97026.19;;;17.63
79089;BMP280;68489;50.286;9.452;2023-08-31T13:54:20;97034.38;;;18.04
79089;BMP280;68489;50.286;9.452;2023-08-31T13:56:45;97022.53;;;18.30
79089;BMP280;68489;50.286;9.452;2023-08-31T13:59:16;97025.34;;;18.54
79089;BMP280;68489;50.286;9.452;2023-08-31T14:01:42;97028.22;;;18.62
79089;BMP280;68489;50.286;9.452;2023-08-31T14:04:10;97036.44;;;18.81
79089;BMP280;68489;50.286;9.452;2023-08-31T14:06:44;97032.34;;;19.04
79089;BMP280;68489;50.286;9.452;2023-08-31T14:09:11;97011.56;;;19.29
79089;BMP280;68489;50.286;9.452;2023-08-31T14:11:37;97035.03;;;19.34
79089;BMP280;68489;50.286;9.452;2023-08-31T14:14:06;97005.97;;;18.97
79089;BMP280;68489;50.286;9.452;2023-08-31T14:16:38;97020.88;;;19.28
79089;BMP280;68489;50.286;9.452;2023-08-31T14:19:24;97023.59;;;19.77